createdAt,value
2019-04-16T00:01:47.459Z,28.62
2019-04-16T00:04:35.606Z,28.67
2019-04-16T00:07:07.493Z,28.71
2019-04-16T00:09:55.701Z,28.75
2019-04-16T00:12:27.629Z,28.81
2019-04-16T00:15:01.879Z,28.86
2019-04-16T00:17:32.562Z,28.91
2019-04-16T00:20:05.668Z,28.94
2019-04-16T00:22:39.757Z,28.99
2019-04-16T00:25:10.386Z,29.04
2019-04-16T00:27:40.785Z,29.09
2019-04-16T00:30:12.481Z,29.15
2019-04-16T00:32:43.112Z,29.21
2019-04-16T00:35:15.689Z,29.24
2019-04-16T00:37:46.109Z,29.31
2019-04-16T00:40:16.900Z,29.36
2019-04-16T00:42:47.192Z,29.40
2019-04-16T00:45:17.662Z,29.42
2019-04-16T00:47:51.394Z,29.45
2019-04-16T00:50:20.300Z,29.50
2019-04-16T00:52:50.872Z,29.55
2019-04-16T00:55:21.524Z,29.59
2019-04-16T00:57:52.225Z,29.60
2019-04-16T01:00:22.518Z,29.62
2019-04-16T01:02:52.760Z,29.66
2019-04-16T01:05:22.984Z,29.68
2019-04-16T01:07:53.353Z,29.70
2019-04-16T01:10:23.915Z,29.74
2019-04-16T01:12:54.573Z,29.77
2019-04-16T01:15:32.062Z,29.79
2019-04-16T01:18:04.337Z,29.82
2019-04-16T01:20:34.482Z,29.86
2019-04-16T01:23:05.129Z,29.86
2019-04-16T01:25:35.452Z,29.91
2019-04-16T01:28:17.019Z,29.94
2019-04-16T01:31:08.267Z,29.97
2019-04-16T01:33:47.417Z,29.98
2019-04-16T01:36:25.320Z,30.03
2019-04-16T01:39:15.599Z,30.03
2019-04-16T01:41:36.520Z,30.06
2019-04-16T01:44:06.719Z,30.11
2019-04-16T01:46:36.962Z,30.14
2019-04-16T01:49:10.071Z,30.15
2019-04-16T01:51:39.102Z,30.19
2019-04-16T01:54:09.323Z,30.21
2019-04-16T01:56:39.554Z,30.24
2019-04-16T01:59:09.767Z,30.27
2019-04-16T02:01:40.299Z,30.31
2019-04-16T02:04:13.351Z,30.32
2019-04-16T02:06:43.989Z,30.34
2019-04-16T02:09:22.510Z,30.35
2019-04-16T02:11:46.545Z,30.38
2019-04-16T02:14:20.438Z,30.40
2019-04-16T02:16:49.269Z,30.42
2019-04-16T02:19:19.553Z,30.43
2019-04-16T02:21:49.806Z,30.45
2019-04-16T02:24:20.667Z,30.49
2019-04-16T02:26:54.631Z,30.51
2019-04-16T02:29:23.746Z,30.56
2019-04-16T02:31:54.038Z,30.57
2019-04-16T02:34:25.639Z,30.60
2019-04-16T02:37:00.514Z,30.65
2019-04-16T02:39:47.218Z,30.66
2019-04-16T02:42:00.503Z,30.68
2019-04-16T02:44:31.516Z,30.73
2019-04-16T02:47:06.371Z,30.80
2019-04-16T02:49:34.095Z,30.86
2019-04-16T02:52:06.129Z,30.91
2019-04-16T02:54:39.480Z,30.93
2019-04-16T02:57:25.802Z,30.99
2019-04-16T02:59:53.041Z,31.00
2019-04-16T03:02:27.855Z,31.04
2019-04-16T03:05:08.705Z,31.06
2019-04-16T03:07:39.059Z,31.11
2019-04-16T03:10:13.255Z,31.17
2019-04-16T03:12:41.653Z,31.17
2019-04-16T03:15:12.878Z,31.22
2019-04-16T03:17:44.577Z,31.23
2019-04-16T03:20:20.817Z,31.25
2019-04-16T03:22:51.359Z,31.27
2019-04-16T03:25:23.152Z,31.33
2019-04-16T03:27:54.407Z,31.37
2019-04-16T03:30:25.791Z,31.42
2019-04-16T03:32:56.149Z,31.47
2019-04-16T03:35:26.869Z,31.52
2019-04-16T03:37:57.693Z,31.56
2019-04-16T03:40:27.986Z,31.58
2019-04-16T03:43:03.965Z,31.63
2019-04-16T03:45:32.280Z,31.68
2019-04-16T03:48:02.668Z,31.71
2019-04-16T03:50:33.303Z,31.75
2019-04-16T03:53:03.943Z,31.78
2019-04-16T03:55:34.436Z,31.84
2019-04-16T03:58:06.113Z,31.87
2019-04-16T04:00:36.933Z,31.93
2019-04-16T04:03:08.278Z,31.97
2019-04-16T04:05:38.501Z,32.00
2019-04-16T04:08:08.741Z,32.08
2019-04-16T04:10:42.017Z,32.14
2019-04-16T04:13:17.267Z,32.19
2019-04-16T04:15:46.262Z,32.26
2019-04-16T04:18:16.860Z,32.33
2019-04-16T04:20:50.748Z,32.39
2019-04-16T04:23:19.906Z,32.48
2019-04-16T04:25:50.665Z,32.54
2019-04-16T04:28:20.967Z,32.59
2019-04-16T04:30:51.196Z,32.66
2019-04-16T04:33:42.627Z,32.78
2019-04-16T04:36:11.876Z,32.80
2019-04-16T04:38:42.123Z,32.87
2019-04-16T04:41:12.342Z,32.94
2019-04-16T04:43:42.972Z,33.01
2019-04-16T04:46:15.059Z,33.11
2019-04-16T04:48:45.335Z,33.36
2019-04-16T04:51:15.598Z,33.59
2019-04-16T04:53:47.570Z,33.76
2019-04-16T04:56:19.614Z,33.80
2019-04-16T04:58:50.284Z,33.84
2019-04-16T05:01:20.519Z,33.89
2019-04-16T05:03:58.400Z,33.93
2019-04-16T05:06:36.580Z,34.06
2019-04-16T05:09:08.174Z,34.18
2019-04-16T05:11:38.843Z,34.28
2019-04-16T05:14:09.475Z,34.21
2019-04-16T05:16:40.030Z,34.21
2019-04-16T05:19:13.845Z,34.17
2019-04-16T05:21:44.152Z,34.05
2019-04-16T05:24:14.368Z,33.93
2019-04-16T05:26:44.582Z,33.80
2019-04-16T05:29:17.429Z,33.62
2019-04-16T05:31:47.187Z,33.55
2019-04-16T05:34:18.332Z,33.47
2019-04-16T05:37:01.516Z,33.35
2019-04-16T05:39:34.936Z,33.30
2019-04-16T05:42:05.292Z,33.30
2019-04-16T05:44:36.096Z,33.30
2019-04-16T05:47:06.419Z,33.26
2019-04-16T05:49:36.648Z,33.20
2019-04-16T05:52:07.983Z,33.27
2019-04-16T05:54:45.743Z,33.24
2019-04-16T05:57:26.201Z,33.24
2019-04-16T05:59:55.618Z,33.31
2019-04-16T06:02:42.049Z,33.36
2019-04-16T06:05:28.129Z,33.36
2019-04-16T06:08:25.698Z,33.29
2019-04-16T06:10:53.837Z,33.22
2019-04-16T06:13:28.408Z,33.17
2019-04-16T06:15:58.884Z,33.16
2019-04-16T06:18:38.010Z,33.11
2019-04-16T06:21:13.444Z,33.07
2019-04-16T06:24:03.363Z,33.01
2019-04-16T06:26:40.379Z,32.96
2019-04-16T06:29:15.094Z,32.81
2019-04-16T06:31:57.167Z,32.67
2019-04-16T06:34:31.799Z,32.51
2019-04-16T06:37:03.706Z,32.33
2019-04-16T06:39:47.845Z,32.13
2019-04-16T06:42:25.874Z,31.93
2019-04-16T06:44:58.019Z,31.74
2019-04-16T06:47:45.211Z,31.59
2019-04-16T06:50:32.098Z,31.42
2019-04-16T06:53:03.080Z,31.23
2019-04-16T06:55:37.139Z,31.04
2019-04-16T06:58:19.593Z,30.86
2019-04-16T07:01:07.196Z,30.67
2019-04-16T07:03:42.670Z,30.44
2019-04-16T07:06:29.597Z,30.23
2019-04-16T07:09:23.799Z,29.98
2019-04-16T07:11:54.558Z,29.74
2019-04-16T07:14:23.602Z,29.49
2019-04-16T07:16:54.099Z,29.27
2019-04-16T07:19:25.326Z,29.06
2019-04-16T07:21:55.640Z,28.83
2019-04-16T07:24:30.169Z,28.56
2019-04-16T07:27:24.379Z,28.38
2019-04-16T07:30:04.907Z,28.15
2019-04-16T07:32:32.356Z,27.89
2019-04-16T07:35:20.948Z,27.68
2019-04-16T07:38:11.384Z,27.46
2019-04-16T07:40:58.269Z,27.24
2019-04-16T07:43:46.276Z,27.03
2019-04-16T07:46:27.527Z,26.82
2019-04-16T07:48:59.823Z,26.62
2019-04-16T07:51:35.747Z,26.41
2019-04-16T07:54:21.718Z,26.22
2019-04-16T07:56:53.634Z,26.05
2019-04-16T07:59:24.899Z,25.85
2019-04-16T08:01:55.793Z,25.70
2019-04-16T08:04:29.249Z,25.61
2019-04-16T08:06:59.342Z,25.49
2019-04-16T08:09:33.582Z,25.39
2019-04-16T08:12:03.036Z,25.31
2019-04-16T08:14:33.302Z,25.15
2019-04-16T08:17:03.727Z,25.04
2019-04-16T08:19:37.053Z,24.89
2019-04-16T08:22:07.627Z,24.81
2019-04-16T08:24:42.118Z,24.69
2019-04-16T08:27:17.943Z,24.59
2019-04-16T08:29:45.412Z,24.49
2019-04-16T08:32:16.275Z,24.38
2019-04-16T08:34:48.739Z,24.28
2019-04-16T08:37:20.095Z,24.21
2019-04-16T08:39:52.315Z,24.11
2019-04-16T08:42:25.227Z,24.03
2019-04-16T08:44:55.322Z,23.96
2019-04-16T08:47:27.636Z,23.88
2019-04-16T08:49:57.887Z,23.78
2019-04-16T08:52:28.094Z,23.63
2019-04-16T08:54:58.312Z,23.52
2019-04-16T08:57:32.066Z,23.45
2019-04-16T09:00:01.964Z,23.31
2019-04-16T09:02:33.407Z,23.21
2019-04-16T09:05:06.535Z,23.13
2019-04-16T09:07:39.852Z,23.05
2019-04-16T09:10:18.119Z,22.94
2019-04-16T09:13:02.042Z,22.91
2019-04-16T09:15:20.741Z,22.88
2019-04-16T09:17:53.950Z,22.83
2019-04-16T09:20:25.866Z,22.76
2019-04-16T09:22:58.834Z,22.68
2019-04-16T09:25:35.393Z,22.58
2019-04-16T09:28:17.662Z,22.49
2019-04-16T09:30:49.692Z,22.39
2019-04-16T09:33:20.539Z,22.32
2019-04-16T09:36:04.768Z,22.22
2019-04-16T09:38:45.138Z,22.17
2019-04-16T09:41:31.818Z,22.11
2019-04-16T09:44:03.681Z,22.07
2019-04-16T09:46:50.294Z,22.05
2019-04-16T09:49:06.238Z,22.04
2019-04-16T09:51:37.857Z,21.99
2019-04-16T09:54:12.519Z,21.94
2019-04-16T09:56:40.360Z,21.93
2019-04-16T09:59:15.744Z,21.88
2019-04-16T10:01:48.554Z,21.83
2019-04-16T10:04:20.287Z,21.77
2019-04-16T10:06:52.567Z,21.73
2019-04-16T10:09:23.228Z,21.71
2019-04-16T10:11:57.233Z,21.64
2019-04-16T10:14:27.800Z,21.62
2019-04-16T10:16:58.071Z,21.62
2019-04-16T10:19:28.363Z,21.61
2019-04-16T10:21:58.575Z,21.57
2019-04-16T10:24:46.849Z,21.54
2019-04-16T10:27:19.128Z,21.51
2019-04-16T10:29:49.445Z,21.52
2019-04-16T10:32:19.665Z,21.53
2019-04-16T10:34:50.302Z,21.51
2019-04-16T10:37:20.992Z,21.50
2019-04-16T10:39:53.033Z,21.51
2019-04-16T10:42:30.683Z,21.52
2019-04-16T10:45:18.960Z,21.54
2019-04-16T10:47:49.348Z,21.56
2019-04-16T10:50:39.815Z,21.57
2019-04-16T10:53:26.316Z,21.58
2019-04-16T10:56:14.267Z,21.60
2019-04-16T10:58:55.447Z,21.56
2019-04-16T11:01:30.377Z,21.54
2019-04-16T11:04:00.958Z,21.55
2019-04-16T11:06:35.326Z,21.55
2019-04-16T11:09:07.518Z,21.57
2019-04-16T11:11:37.776Z,21.60
2019-04-16T11:14:08.574Z,21.63
2019-04-16T11:16:40.849Z,21.64
2019-04-16T11:19:11.687Z,21.66
2019-04-16T11:21:41.929Z,21.69
2019-04-16T11:24:12.183Z,21.70
2019-04-16T11:26:44.511Z,21.71
2019-04-16T11:29:14.962Z,21.71
2019-04-16T11:31:45.559Z,21.71
2019-04-16T11:34:15.912Z,21.75
2019-04-16T11:36:47.040Z,21.74
2019-04-16T11:39:17.343Z,21.77
2019-04-16T11:41:47.635Z,21.76
2019-04-16T11:44:18.054Z,21.73
2019-04-16T11:46:48.608Z,21.77
2019-04-16T11:49:18.956Z,21.80
2019-04-16T11:51:49.672Z,21.83
2019-04-16T11:54:19.961Z,21.90
2019-04-16T11:56:50.187Z,21.90
2019-04-16T11:59:20.458Z,21.96
2019-04-16T12:02:01.577Z,21.97
2019-04-16T12:04:39.657Z,22.01
2019-04-16T12:07:25.358Z,22.06
2019-04-16T12:10:13.287Z,22.12
2019-04-16T12:12:51.196Z,22.16
2019-04-16T12:15:27.014Z,22.21
2019-04-16T12:18:07.821Z,22.28
2019-04-16T12:20:54.752Z,22.30
2019-04-16T12:23:36.054Z,22.33
2019-04-16T12:26:24.462Z,22.35
2019-04-16T12:28:56.319Z,22.40
2019-04-16T12:31:38.478Z,22.43
2019-04-16T12:34:13.496Z,22.48
2019-04-16T12:36:50.628Z,22.52
2019-04-16T12:39:36.005Z,22.58
2019-04-16T12:42:10.940Z,22.62
2019-04-16T12:44:45.583Z,22.67
2019-04-16T12:47:20.073Z,22.71
2019-04-16T12:49:55.467Z,22.79
2019-04-16T12:52:41.141Z,22.88
2019-04-16T12:55:23.692Z,22.90
2019-04-16T12:57:59.011Z,23.00
2019-04-16T13:00:40.664Z,23.05
2019-04-16T13:03:18.269Z,23.13
2019-04-16T13:05:50.937Z,23.21
2019-04-16T13:08:43.560Z,23.30
2019-04-16T13:11:15.887Z,23.45
2019-04-16T13:14:03.689Z,23.59
2019-04-16T13:16:46.090Z,23.71
2019-04-16T13:19:34.543Z,23.78
2019-04-16T13:22:07.526Z,23.97
2019-04-16T13:24:57.590Z,24.11
2019-04-16T13:27:32.846Z,24.25
2019-04-16T13:30:05.261Z,24.41
2019-04-16T13:32:35.578Z,24.58
2019-04-16T13:35:08.347Z,24.76
2019-04-16T13:37:38.598Z,24.91
2019-04-16T13:40:14.352Z,25.07
2019-04-16T13:42:46.598Z,25.20
2019-04-16T13:45:25.590Z,25.37
2019-04-16T13:47:55.862Z,25.51
2019-04-16T13:50:42.990Z,25.66
2019-04-16T13:53:28.971Z,25.82
2019-04-16T13:56:18.828Z,25.98
2019-04-16T13:58:51.136Z,26.13
2019-04-16T14:01:25.889Z,26.33
2019-04-16T14:03:57.066Z,26.55
2019-04-16T14:06:27.910Z,26.67
2019-04-16T14:08:58.242Z,26.85
2019-04-16T14:11:28.521Z,26.99
2019-04-16T14:13:58.765Z,27.19
2019-04-16T14:16:28.999Z,27.33
2019-04-16T14:19:02.559Z,27.50
2019-04-16T14:21:31.288Z,27.63
2019-04-16T14:24:01.519Z,27.77
2019-04-16T14:26:33.921Z,27.95
2019-04-16T14:29:07.878Z,28.11
2019-04-16T14:31:40.259Z,28.28
2019-04-16T14:34:13.932Z,28.43
2019-04-16T14:36:44.549Z,28.58
2019-04-16T14:39:16.927Z,28.74
2019-04-16T14:41:49.924Z,28.87
2019-04-16T14:44:20.857Z,29.00
2019-04-16T14:46:51.195Z,29.09
2019-04-16T14:49:21.446Z,29.24
2019-04-16T14:51:51.700Z,29.35
2019-04-16T14:54:23.744Z,29.45
2019-04-16T14:56:55.623Z,29.55
2019-04-16T14:59:35.269Z,29.63
2019-04-16T15:02:04.424Z,29.76
2019-04-16T15:04:36.305Z,29.90
2019-04-16T15:07:08.538Z,30.02
2019-04-16T15:09:47.105Z,30.14
2019-04-16T15:12:35.736Z,30.26
2019-04-16T15:15:26.793Z,30.39
2019-04-16T15:18:14.244Z,30.53
2019-04-16T15:20:52.453Z,30.65
2019-04-16T15:23:27.145Z,30.79
2019-04-16T15:26:17.049Z,30.90
2019-04-16T15:28:52.009Z,31.01
2019-04-16T15:31:24.313Z,31.12
2019-04-16T15:33:59.784Z,31.22
2019-04-16T15:36:31.798Z,31.29
2019-04-16T15:39:09.223Z,31.43
2019-04-16T15:41:57.349Z,31.51
2019-04-16T15:44:32.104Z,31.61
2019-04-16T15:47:13.942Z,31.74
2019-04-16T15:49:49.313Z,31.83
2019-04-16T15:52:22.263Z,31.95
2019-04-16T15:54:54.573Z,32.03
2019-04-16T15:57:46.219Z,32.13
2019-04-16T16:00:19.450Z,32.24
2019-04-16T16:03:08.113Z,32.37
2019-04-16T16:05:40.411Z,32.46
2019-04-16T16:08:22.343Z,32.59
2019-04-16T16:10:57.544Z,32.70
2019-04-16T16:13:28.175Z,32.82
2019-04-16T16:15:58.440Z,32.91
2019-04-16T16:18:28.685Z,33.01
2019-04-16T16:20:59.168Z,33.13
2019-04-16T16:23:34.098Z,33.23
2019-04-16T16:26:02.514Z,33.36
2019-04-16T16:28:33.124Z,33.46
2019-04-16T16:31:03.969Z,33.57
2019-04-16T16:33:34.292Z,33.65
2019-04-16T16:36:06.542Z,33.75
2019-04-16T16:38:36.842Z,33.87
2019-04-16T16:41:07.566Z,33.98
2019-04-16T16:43:39.155Z,34.08
2019-04-16T16:46:13.493Z,34.23
2019-04-16T16:48:43.414Z,34.34
2019-04-16T16:51:14.757Z,34.44
2019-04-16T16:54:02.570Z,34.57
2019-04-16T16:56:43.221Z,34.66
2019-04-16T16:59:30.396Z,34.80
2019-04-16T17:02:20.326Z,34.89
2019-04-16T17:04:55.173Z,35.02
2019-04-16T17:07:25.519Z,35.13
2019-04-16T17:09:55.861Z,35.24
2019-04-16T17:12:26.100Z,35.35
2019-04-16T17:14:56.725Z,35.46
2019-04-16T17:17:27.076Z,35.56
2019-04-16T17:19:57.362Z,35.68
2019-04-16T17:22:27.637Z,35.78
2019-04-16T17:24:57.954Z,35.88
2019-04-16T17:27:28.260Z,35.99
2019-04-16T17:29:58.561Z,36.10
2019-04-16T17:32:29.300Z,36.20
2019-04-16T17:34:59.717Z,36.30
2019-04-16T17:37:31.465Z,36.41
2019-04-16T17:40:03.362Z,36.49
2019-04-16T17:42:37.663Z,36.62
2019-04-16T17:45:25.302Z,36.74
2019-04-16T17:48:13.293Z,36.83
2019-04-16T17:51:02.295Z,36.96
2019-04-16T17:53:34.193Z,37.07
2019-04-16T17:56:22.351Z,37.18
2019-04-16T17:58:57.211Z,37.26
2019-04-16T18:01:46.028Z,37.42
2019-04-16T18:04:19.268Z,37.51
2019-04-16T18:06:57.478Z,37.64
2019-04-16T18:09:36.661Z,37.74
2019-04-16T18:12:16.976Z,37.85
2019-04-16T18:14:59.664Z,37.97
2019-04-16T18:17:47.217Z,38.07
2019-04-16T18:20:33.362Z,38.19
2019-04-16T18:23:12.138Z,38.29
2019-04-16T18:25:57.683Z,38.42
2019-04-16T18:28:38.298Z,38.52
2019-04-16T18:31:16.236Z,38.64
2019-04-16T18:33:57.008Z,38.76
2019-04-16T18:36:35.187Z,38.87
2019-04-16T18:39:07.563Z,38.96
2019-04-16T18:41:44.445Z,39.08
2019-04-16T18:44:19.230Z,39.18
2019-04-16T18:47:05.063Z,39.29
2019-04-16T18:49:36.990Z,39.37
2019-04-16T18:52:07.539Z,39.51
2019-04-16T18:54:37.843Z,39.61
2019-04-16T18:57:08.773Z,39.70
2019-04-16T18:59:39.021Z,39.80
2019-04-16T19:02:10.811Z,39.91
2019-04-16T19:04:41.050Z,40.01
2019-04-16T19:07:11.298Z,40.12
2019-04-16T19:09:41.566Z,40.20
2019-04-16T19:12:12.390Z,40.31
2019-04-16T19:14:44.323Z,40.42
2019-04-16T19:17:16.706Z,40.53
2019-04-16T19:19:46.959Z,40.63
2019-04-16T19:22:17.619Z,40.72
2019-04-16T19:24:47.953Z,40.83
2019-04-16T19:27:18.223Z,40.92
2019-04-16T19:29:48.491Z,41.00
2019-04-16T19:32:18.737Z,41.12
2019-04-16T19:34:49.042Z,41.20
2019-04-16T19:37:19.722Z,41.29
2019-04-16T19:39:50.056Z,41.40
2019-04-16T19:42:20.687Z,41.47
2019-04-16T19:44:51.002Z,41.57
2019-04-16T19:47:23.303Z,41.65
2019-04-16T19:49:53.216Z,41.75
2019-04-16T19:52:23.842Z,41.84
2019-04-16T19:54:54.139Z,41.90
2019-04-16T19:57:24.386Z,42.01
2019-04-16T19:59:55.095Z,42.11
2019-04-16T20:02:25.824Z,42.19
2019-04-16T20:04:56.160Z,42.29
2019-04-16T20:07:32.894Z,42.38
2019-04-16T20:10:03.172Z,42.47
2019-04-16T20:12:35.138Z,42.57
2019-04-16T20:15:09.385Z,42.66
2019-04-16T20:17:39.006Z,42.75
2019-04-16T20:20:09.618Z,42.82
2019-04-16T20:22:40.809Z,42.91
2019-04-16T20:25:11.557Z,43.00
2019-04-16T20:27:41.974Z,43.08
2019-04-16T20:30:14.080Z,43.16
2019-04-16T20:32:44.420Z,43.26
2019-04-16T20:35:17.895Z,43.33
2019-04-16T20:37:46.649Z,43.42
2019-04-16T20:40:17.819Z,43.50
2019-04-16T20:42:49.330Z,43.56
2019-04-16T20:45:21.268Z,43.63
2019-04-16T20:47:51.593Z,43.69
2019-04-16T20:50:23.619Z,43.78
2019-04-16T20:52:53.860Z,43.82
2019-04-16T20:55:24.449Z,43.90
2019-04-16T20:57:55.296Z,43.97
2019-04-16T21:00:32.659Z,44.04
2019-04-16T21:03:03.815Z,44.11
2019-04-16T21:05:36.575Z,44.16
2019-04-16T21:08:08.562Z,44.22
2019-04-16T21:10:40.066Z,44.29
2019-04-16T21:13:10.262Z,44.36
2019-04-16T21:15:40.567Z,44.42
2019-04-16T21:18:12.155Z,44.48
2019-04-16T21:20:44.762Z,44.54
2019-04-16T21:23:15.032Z,44.61
2019-04-16T21:25:46.727Z,44.67
2019-04-16T21:28:27.253Z,44.73
2019-04-16T21:30:59.505Z,44.79
2019-04-16T21:33:34.608Z,44.84
2019-04-16T21:36:06.537Z,44.88
2019-04-16T21:38:50.126Z,44.93
2019-04-16T21:41:20.384Z,44.96
2019-04-16T21:43:50.624Z,45.01
2019-04-16T21:46:21.186Z,45.03
2019-04-16T21:48:52.019Z,45.07
2019-04-16T21:51:24.310Z,45.11
2019-04-16T21:53:57.359Z,45.14
2019-04-16T21:56:27.384Z,45.18
2019-04-16T21:58:58.084Z,45.22
2019-04-16T22:01:32.773Z,45.27
2019-04-16T22:04:14.379Z,45.31
2019-04-16T22:06:45.453Z,45.36
2019-04-16T22:09:15.748Z,45.41
2019-04-16T22:11:46.091Z,45.45
2019-04-16T22:14:22.031Z,45.53
2019-04-16T22:16:48.721Z,45.57
2019-04-16T22:19:19.305Z,45.59
2019-04-16T22:21:49.671Z,45.65
2019-04-16T22:24:22.901Z,45.68
2019-04-16T22:26:52.673Z,45.74
2019-04-16T22:29:23.370Z,45.82
2019-04-16T22:31:57.109Z,45.85
2019-04-16T22:34:26.765Z,45.93
2019-04-16T22:36:57.152Z,45.95
2019-04-16T22:39:31.810Z,46.00
2019-04-16T22:42:20.162Z,46.03
2019-04-16T22:44:50.546Z,46.08
2019-04-16T22:47:32.621Z,46.12
2019-04-16T22:50:14.782Z,46.15
2019-04-16T22:52:36.105Z,46.21
2019-04-16T22:55:06.783Z,46.24
2019-04-16T22:57:37.882Z,46.28
2019-04-16T23:00:12.873Z,46.30
2019-04-16T23:02:48.087Z,46.33
2019-04-16T23:05:16.309Z,46.37
2019-04-16T23:07:46.650Z,46.42
2019-04-16T23:10:17.829Z,46.44
2019-04-16T23:12:49.270Z,46.46
2019-04-16T23:15:19.537Z,46.50
2019-04-16T23:17:49.757Z,46.50
2019-04-16T23:20:29.185Z,46.53
2019-04-16T23:22:52.258Z,46.53
2019-04-16T23:25:26.905Z,46.56
2019-04-16T23:27:55.150Z,46.60
2019-04-16T23:30:25.434Z,46.62
2019-04-16T23:32:58.996Z,46.65
2019-04-16T23:35:28.344Z,46.69
2019-04-16T23:38:00.909Z,46.72
2019-04-16T23:40:30.923Z,46.72
2019-04-16T23:43:03.226Z,46.76
2019-04-16T23:45:33.624Z,46.79
2019-04-16T23:48:13.968Z,46.83
2019-04-16T23:50:45.730Z,46.83
2019-04-16T23:53:17.740Z,46.85
2019-04-16T23:56:05.726Z,46.90
2019-04-16T23:58:43.602Z,46.90
